Time;durP1;ratioP1;P1;durP2;ratioP2;P2;SDS_P1;SDS_P2;PMS_P1;PMS_P2;Temp;Humidity;BMP_temperature;BMP_pressure;BME280_temperature;BME280_humidity;BME280_pressure;Samples;Min_cycle;Max_cycle;Signal;HPM_P1;HPM_P2
2023/06/01 00:00:58;;;;;;;6.53;2.40;;;;;;;15.31;65.56;100745.94;2058232;28;20042;-74
2023/06/01 00:01:59;;;;;;;6.93;2.33;;;;;;;15.27;65.45;100744.94;2065992;28;20055;-74
2023/06/01 00:03:01;;;;;;;6.22;2.22;;;;;;;15.27;65.78;100744.94;2072129;28;20837;-72
2023/06/01 00:04:03;;;;;;;5.80;2.20;;;;;;;15.27;65.81;100748.47;2065720;28;21007;-72
2023/06/01 00:05:05;;;;;;;10.23;2.30;;;;;;;15.28;65.55;100746.53;2073534;28;20796;-72
2023/06/01 00:06:07;;;;;;;8.60;2.17;;;;;;;15.25;65.64;100753.38;2073495;28;20058;-73
2023/06/01 00:07:10;;;;;;;8.85;2.47;;;;;;;15.25;65.62;100736.31;2074639;28;20144;-72
2023/06/01 00:08:11;;;;;;;12.75;2.55;;;;;;;15.24;65.90;100745.56;2066581;28;20186;-72
2023/06/01 00:09:13;;;;;;;11.02;2.95;;;;;;;15.23;65.81;100746.69;2066404;28;20153;-72
2023/06/01 00:10:15;;;;;;;8.82;2.08;;;;;;;15.23;65.72;100733.13;2066336;28;20127;-72
2023/06/01 00:11:17;;;;;;;7.85;2.30;;;;;;;15.23;65.99;100744.75;2090635;28;20076;-72
2023/06/01 00:12:20;;;;;;;6.20;2.15;;;;;;;15.22;65.97;100732.31;2082650;28;20037;-72
2023/06/01 00:13:22;;;;;;;7.38;2.38;;;;;;;15.22;66.07;100736.94;2066111;28;20078;-72
2023/06/01 00:14:23;;;;;;;7.13;2.47;;;;;;;15.15;66.03;100726.50;2066218;28;20076;-72
2023/06/01 00:15:25;;;;;;;9.80;2.38;;;;;;;15.15;66.12;100731.94;2066131;28;20039;-72
2023/06/01 00:16:26;;;;;;;10.05;2.40;;;;;;;15.18;66.31;100730.53;2062824;28;20030;-72
2023/06/01 00:17:28;;;;;;;9.38;2.80;;;;;;;15.17;66.45;100739.75;2082315;28;20045;-72
2023/06/01 00:18:30;;;;;;;6.97;2.38;;;;;;;15.16;66.15;100728.09;2076959;28;20076;-72
2023/06/01 00:19:31;;;;;;;13.95;2.50;;;;;;;15.12;66.31;100726.31;2074561;28;20862;-72
2023/06/01 00:20:38;;;;;;;9.23;2.47;;;;;;;15.05;66.43;100716.72;2074583;28;20151;-72
2023/06/01 00:21:41;;;;;;;6.45;2.20;;;;;;;15.05;66.63;100722.13;2075097;28;20852;-72
2023/06/01 00:22:43;;;;;;;10.43;2.35;;;;;;;15.06;66.84;100723.72;2082654;28;20026;-72
2023/06/01 00:23:45;;;;;;;6.75;2.38;;;;;;;15.07;66.88;100719.94;2066062;28;20039;-72
2023/06/01 00:24:47;;;;;;;7.65;2.40;;;;;;;15.10;66.54;100720.41;2058310;28;20047;-72
2023/06/01 00:25:50;;;;;;;9.80;2.08;;;;;;;15.12;66.54;100721.72;2066567;28;20169;-72
2023/06/01 00:26:51;;;;;;;8.60;2.58;;;;;;;15.13;66.57;100725.22;2081847;28;20064;-72
2023/06/01 00:27:53;;;;;;;9.32;2.45;;;;;;;15.13;66.49;100723.34;2081345;28;20088;-72
2023/06/01 00:28:55;;;;;;;9.65;2.60;;;;;;;15.11;66.85;100730.16;2073892;28;20026;-71
2023/06/01 00:29:57;;;;;;;8.82;2.55;;;;;;;15.10;66.76;100717.69;2074735;28;20034;-72
2023/06/01 00:30:59;;;;;;;5.68;2.03;;;;;;;15.07;66.67;100719.13;2074203;28;20746;-71
2023/06/01 00:32:01;;;;;;;11.63;2.50;;;;;;;15.01;66.95;100718.44;2074196;28;20804;-72
2023/06/01 00:33:04;;;;;;;12.27;2.95;;;;;;;14.91;67.26;100710.53;2074647;28;20042;-72
2023/06/01 00:34:07;;;;;;;4.53;2.38;;;;;;;14.92;67.41;100716.75;2082063;28;20046;-73
2023/06/01 00:35:09;;;;;;;12.30;2.65;;;;;;;14.93;67.56;100707.50;2074505;28;20049;-73
2023/06/01 00:36:10;;;;;;;11.68;2.22;;;;;;;14.90;67.34;100717.03;2066215;28;20037;-73
2023/06/01 00:37:12;;;;;;;7.97;2.70;;;;;;;14.89;67.67;100712.72;2074234;28;20038;-74
2023/06/01 00:38:14;;;;;;;5.07;2.08;;;;;;;14.87;67.70;100714.94;2066380;28;21155;-73
2023/06/01 00:39:16;;;;;;;5.57;1.98;;;;;;;14.88;67.75;100713.03;2066504;28;20136;-74
2023/06/01 00:40:17;;;;;;;5.90;2.08;;;;;;;14.85;67.77;100717.16;2074070;28;20121;-75
2023/06/01 00:41:20;;;;;;;9.02;2.45;;;;;;;14.85;67.66;100714.47;2074343;28;20038;-75
2023/06/01 00:42:23;;;;;;;7.28;2.20;;;;;;;14.84;67.83;100718.25;2074322;28;20035;-74
2023/06/01 00:43:24;;;;;;;9.27;2.60;;;;;;;14.85;67.80;100706.34;2082695;28;20057;-75
2023/06/01 00:44:27;;;;;;;9.88;2.65;;;;;;;14.83;68.18;100708.53;2081912;28;20152;-74
2023/06/01 00:45:31;;;;;;;6.40;2.20;;;;;;;14.85;68.19;100711.75;2082958;28;20133;-75
2023/06/01 00:46:34;;;;;;;9.77;2.40;;;;;;;14.86;68.23;100707.94;2070516;28;20033;-74
2023/06/01 00:47:41;;;;;;;10.60;2.67;;;;;;;14.88;68.19;100711.16;2074401;28;20042;-76
2023/06/01 00:48:46;;;;;;;9.18;2.25;;;;;;;14.90;68.16;100708.91;2058813;28;20039;-75
2023/06/01 00:49:48;;;;;;;9.82;2.20;;;;;;;14.86;68.02;100716.06;2067870;28;20079;-75
2023/06/01 00:50:51;;;;;;;6.78;2.38;;;;;;;14.83;68.02;100709.31;2066006;28;20042;-75
2023/06/01 00:51:53;;;;;;;9.40;2.42;;;;;;;14.78;68.20;100703.22;2058412;28;20039;-75
2023/06/01 00:52:59;;;;;;;5.95;2.28;;;;;;;14.82;68.08;100712.34;2069976;28;20030;-74
2023/06/01 00:54:01;;;;;;;7.30;2.65;;;;;;;14.86;68.29;100707.94;2073992;28;20085;-73
2023/06/01 00:55:04;;;;;;;10.35;2.45;;;;;;;14.87;68.39;100708.72;2066477;28;21279;-72
2023/06/01 00:56:06;;;;;;;7.22;2.17;;;;;;;14.86;68.27;100707.13;2074237;28;20865;-74
2023/06/01 00:57:08;;;;;;;8.40;2.40;;;;;;;14.85;68.34;100706.34;2074184;28;20049;-72
2023/06/01 00:58:09;;;;;;;7.47;2.40;;;;;;;14.86;68.36;100713.34;2076230;28;20931;-72
2023/06/01 00:59:12;;;;;;;7.38;2.45;;;;;;;14.84;68.36;100702.00;2089779;28;20068;-72
2023/06/01 01:00:14;;;;;;;7.10;2.42;;;;;;;14.83;68.28;100703.13;2069463;28;21089;-72
2023/06/01 01:01:18;;;;;;;8.57;2.20;;;;;;;14.82;68.63;100698.81;2074057;28;20080;-72
2023/06/01 01:02:21;;;;;;;6.07;2.53;;;;;;;14.83;68.46;100703.13;2066000;28;20039;-73
2023/06/01 01:03:25;;;;;;;7.55;2.55;;;;;;;14.84;68.46;100699.28;2061665;28;20031;-73
2023/06/01 01:04:28;;;;;;;6.45;2.13;;;;;;;14.82;68.74;100698.81;2066398;28;20045;-74
2023/06/01 01:05:30;;;;;;;9.68;2.42;;;;;;;14.81;68.70;100695.28;2066544;28;20926;-72
2023/06/01 01:06:56;;;;;;;5.47;2.00;;;;;;;14.77;68.72;100694.31;2080256;28;20033;-72
2023/06/01 01:08:27;;;;;;;9.48;2.45;;;;;;;14.72;68.78;100696.31;2073492;28;20130;-73
2023/06/01 01:09:32;;;;;;;8.70;2.75;;;;;;;14.66;69.05;100692.94;2065257;28;20128;-72
2023/06/01 01:10:41;;;;;;;4.55;2.45;;;;;;;14.64;69.15;100697.03;2067012;28;20050;-73
2023/06/01 01:11:53;;;;;;;8.18;2.60;;;;;;;14.68;69.23;100695.31;2074967;28;20042;-73
2023/06/01 01:13:06;;;;;;;6.05;2.15;;;;;;;14.66;69.33;100695.63;2091499;28;20137;-72
2023/06/01 01:14:24;;;;;;;5.18;2.28;;;;;;;14.55;69.43;100697.72;2081945;28;20042;-72
2023/06/01 01:15:51;;;;;;;5.15;2.53;;;;;;;14.55;69.72;100691.53;2090107;28;20064;-72
2023/06/01 01:17:15;;;;;;;8.20;2.60;;;;;;;14.49;69.96;100693.50;2069538;28;20292;-71
2023/06/01 01:18:32;;;;;;;11.02;2.63;;;;;;;14.46;69.97;100688.69;2081572;28;20030;-72
2023/06/01 01:19:54;;;;;;;9.52;2.70;;;;;;;14.43;70.10;100689.28;2071586;28;20039;-73
2023/06/01 01:21:01;;;;;;;7.65;2.00;;;;;;;14.44;70.45;100684.66;2076571;28;20060;-73
2023/06/01 01:22:30;;;;;;;8.32;2.30;;;;;;;14.39;70.41;100685.59;2083063;28;20045;-72
2023/06/01 01:23:38;;;;;;;7.07;2.70;;;;;;;14.42;70.59;100679.56;2064706;28;20287;-73
2023/06/01 01:25:21;;;;;;;7.47;2.20;;;;;;;14.45;70.74;100675.47;2067912;28;20046;-73
2023/06/01 01:26:31;;;;;;;8.52;2.60;;;;;;;14.46;70.65;100677.84;2073760;28;20840;-73
2023/06/01 01:28:00;;;;;;;5.25;2.10;;;;;;;14.47;70.52;100679.47;2071629;28;20927;-73
2023/06/01 01:29:08;;;;;;;10.85;2.70;;;;;;;14.52;70.59;100675.88;2069030;28;20145;-73
2023/06/01 01:30:13;;;;;;;7.30;2.47;;;;;;;14.54;70.63;100677.19;2058001;28;20038;-72
2023/06/01 01:31:22;;;;;;;10.02;2.58;;;;;;;14.54;70.51;100679.91;2074624;28;20034;-73
2023/06/01 01:32:26;;;;;;;11.43;2.60;;;;;;;14.52;70.45;100692.13;2073445;28;20050;-73
2023/06/01 01:33:28;;;;;;;8.20;2.55;;;;;;;14.48;70.29;100672.97;2057613;28;20027;-73
2023/06/01 01:34:32;;;;;;;15.90;3.05;;;;;;;14.48;70.49;100686.50;2049754;28;20067;-73
2023/06/01 01:35:33;;;;;;;8.38;2.28;;;;;;;14.51;70.35;100685.91;2049976;28;20736;-73
2023/06/01 01:36:37;;;;;;;10.77;2.50;;;;;;;14.53;70.60;100686.44;2057664;28;20916;-73
2023/06/01 01:37:53;;;;;;;8.20;2.20;;;;;;;14.50;70.75;100695.13;2074128;28;20101;-72
2023/06/01 01:38:55;;;;;;;10.45;2.35;;;;;;;14.44;70.75;100687.38;2082220;28;20056;-72
2023/06/01 01:39:57;;;;;;;8.82;2.80;;;;;;;14.42;70.88;100687.69;2065633;28;20054;-73
2023/06/01 01:40:59;;;;;;;10.32;2.50;;;;;;;14.38;70.78;100687.50;2074056;28;20853;-72
2023/06/01 01:42:01;;;;;;;6.53;2.47;;;;;;;14.37;71.03;100691.31;2065833;28;20078;-72
2023/06/01 01:43:04;;;;;;;8.98;2.20;;;;;;;14.36;71.13;100686.19;2066841;28;20078;-72
2023/06/01 01:44:08;;;;;;;9.43;2.70;;;;;;;14.31;71.17;100697.91;2073896;28;20026;-72
2023/06/01 01:45:11;;;;;;;7.78;2.72;;;;;;;14.29;71.19;100683.88;2065996;28;20117;-73
2023/06/01 01:46:28;;;;;;;8.48;2.60;;;;;;;14.33;71.21;100693.00;2074113;28;20105;-73
2023/06/01 01:47:41;;;;;;;11.20;2.30;;;;;;;14.37;71.37;100690.47;2081943;28;20042;-72
2023/06/01 01:49:17;;;;;;;9.45;2.42;;;;;;;14.37;71.20;100685.91;2075598;28;20153;-73
2023/06/01 01:50:28;;;;;;;9.80;2.30;;;;;;;14.38;71.19;100687.50;2070563;28;20110;-73
2023/06/01 01:51:36;;;;;;;10.38;2.83;;;;;;;14.40;71.13;100683.66;2074909;28;20256;-73
2023/06/01 01:52:42;;;;;;;9.10;2.50;;;;;;;14.31;71.04;100687.09;2066426;28;20089;-73
2023/06/01 01:53:45;;;;;;;8.55;2.80;;;;;;;14.26;71.23;100687.19;2057539;28;20070;-73
2023/06/01 01:54:49;;;;;;;7.47;2.70;;;;;;;14.26;71.36;100694.50;2058620;28;20039;-73
2023/06/01 01:55:53;;;;;;;5.97;2.28;;;;;;;14.26;71.56;100684.47;2065584;28;20039;-72
2023/06/01 01:56:58;;;;;;;7.60;2.60;;;;;;;14.27;71.52;100693.38;2058044;28;20758;-73
2023/06/01 01:58:01;;;;;;;9.32;2.70;;;;;;;14.25;71.60;100684.75;2074085;28;20108;-73
2023/06/01 01:59:05;;;;;;;8.27;2.88;;;;;;;14.16;71.61;100678.47;2081496;28;20127;-74
2023/06/01 02:00:08;;;;;;;6.25;2.47;;;;;;;14.10;71.99;100681.25;2073637;28;20042;-74
2023/06/01 02:01:17;;;;;;;8.23;2.60;;;;;;;14.08;71.99;100682.66;2072886;28;20060;-75
2023/06/01 02:02:18;;;;;;;11.38;2.63;;;;;;;14.10;72.17;100691.28;2072192;28;20042;-74
2023/06/01 02:03:21;;;;;;;5.22;2.58;;;;;;;14.11;72.43;100672.03;2067225;28;20790;-74
2023/06/01 02:04:21;;;;;;;11.27;3.50;;;;;;;14.16;72.28;100678.47;2082244;28;20116;-73
2023/06/01 02:05:24;;;;;;;11.25;2.40;;;;;;;14.13;72.27;100680.66;2074149;28;20415;-73
2023/06/01 02:06:26;;;;;;;10.02;2.83;;;;;;;14.11;72.20;100680.16;2065249;28;20038;-73
2023/06/01 02:07:27;;;;;;;9.52;2.72;;;;;;;14.09;72.32;100685.06;2057517;28;20042;-74
2023/06/01 02:08:29;;;;;;;8.25;3.65;;;;;;;14.06;72.30;100692.97;2084737;28;20049;-74
2023/06/01 02:09:32;;;;;;;6.28;2.60;;;;;;;14.02;72.48;100673.84;2073548;28;21015;-73
2023/06/01 02:10:33;;;;;;;8.73;2.80;;;;;;;14.05;72.48;100683.25;2057801;28;20043;-73
2023/06/01 02:11:35;;;;;;;7.35;2.58;;;;;;;14.07;72.63;100698.09;2065644;28;20035;-73
2023/06/01 02:12:37;;;;;;;12.57;2.90;;;;;;;14.12;72.65;100679.06;2057400;28;21057;-73
2023/06/01 02:13:39;;;;;;;6.93;2.10;;;;;;;14.11;72.40;100677.44;2049464;28;20036;-73
2023/06/01 02:14:41;;;;;;;13.52;3.10;;;;;;;14.13;72.41;100675.25;2065686;28;20826;-73
2023/06/01 02:15:43;;;;;;;9.93;3.10;;;;;;;14.15;72.58;100683.06;2057492;28;20035;-73
2023/06/01 02:16:45;;;;;;;12.20;2.70;;;;;;;14.14;72.36;100679.56;2061250;28;20045;-72
2023/06/01 02:17:53;;;;;;;7.80;2.40;;;;;;;14.14;72.52;100679.56;2081702;28;20045;-71
2023/06/01 02:18:57;;;;;;;10.27;3.10;;;;;;;14.11;72.57;100676.66;2072568;28;20043;-71
2023/06/01 02:20:00;;;;;;;7.43;2.50;;;;;;;14.11;72.55;100672.03;2059150;28;20042;-71
2023/06/01 02:21:02;;;;;;;5.72;2.70;;;;;;;14.12;72.29;100673.66;2065764;28;20074;-72
2023/06/01 02:22:04;;;;;;;8.18;2.50;;;;;;;14.10;72.52;100685.88;2073766;28;20064;-71
2023/06/01 02:23:06;;;;;;;8.77;2.65;;;;;;;14.04;72.40;100674.34;2081395;28;20076;-72
2023/06/01 02:24:08;;;;;;;10.95;3.10;;;;;;;14.00;72.61;100669.84;2073513;28;20042;-71
2023/06/01 02:25:10;;;;;;;9.27;2.88;;;;;;;14.03;72.65;100670.03;2065650;28;20085;-72
2023/06/01 02:26:12;;;;;;;9.88;2.85;;;;;;;14.03;73.05;100674.63;2065588;28;20038;-72
2023/06/01 02:27:13;;;;;;;7.28;2.50;;;;;;;14.03;72.77;100671.94;2065609;28;20042;-71
2023/06/01 02:28:15;;;;;;;8.15;2.60;;;;;;;14.01;73.00;100666.81;2073660;28;20038;-72
2023/06/01 02:29:19;;;;;;;12.48;2.65;;;;;;;13.98;72.85;100667.44;2073402;28;20041;-71
2023/06/01 02:30:21;;;;;;;16.70;3.20;;;;;;;14.02;73.00;100662.22;2074386;28;20861;-72
2023/06/01 02:31:23;;;;;;;8.65;2.65;;;;;;;14.04;73.13;100660.03;2070244;28;20071;-72
2023/06/01 02:32:26;;;;;;;8.90;2.90;;;;;;;13.99;72.76;100668.22;2057175;28;20042;-72
2023/06/01 02:33:29;;;;;;;8.25;2.80;;;;;;;13.94;72.80;100665.63;2060266;28;20024;-72
2023/06/01 02:34:33;;;;;;;9.23;3.05;;;;;;;13.92;73.13;100663.22;2073411;28;20861;-72
2023/06/01 02:35:35;;;;;;;11.13;3.15;;;;;;;13.94;73.06;100655.63;2051516;28;20031;-72
2023/06/01 02:36:37;;;;;;;8.68;2.30;;;;;;;13.94;73.02;100642.09;2058775;28;20170;-71
2023/06/01 02:37:39;;;;;;;11.65;3.10;;;;;;;13.86;73.18;100648.97;2066799;28;20061;-72
2023/06/01 02:38:41;;;;;;;8.98;2.42;;;;;;;13.82;73.55;100647.19;2081559;28;20038;-72
2023/06/01 02:39:43;;;;;;;9.45;2.60;;;;;;;13.83;73.66;100649.56;2086613;28;20113;-72
2023/06/01 02:40:46;;;;;;;9.45;2.72;;;;;;;13.84;73.67;100651.19;2074607;28;20956;-72
2023/06/01 02:41:48;;;;;;;7.95;2.65;;;;;;;13.86;73.32;100643.56;2066759;28;20038;-72
2023/06/01 02:42:50;;;;;;;7.30;2.72;;;;;;;13.91;73.51;100640.78;2067217;28;20897;-72
2023/06/01 02:43:52;;;;;;;7.45;2.47;;;;;;;13.94;73.54;100650.22;2082893;28;20034;-72
2023/06/01 02:44:54;;;;;;;6.72;2.70;;;;;;;13.98;73.35;100648.50;2079639;28;20160;-72
2023/06/01 02:45:56;;;;;;;13.23;3.47;;;;;;;13.98;73.13;100645.00;2075113;28;20035;-72
2023/06/01 02:46:58;;;;;;;6.97;2.97;;;;;;;13.92;73.31;100641.59;2066809;28;20125;-72
2023/06/01 02:48:03;;;;;;;8.88;2.97;;;;;;;13.87;73.30;100644.38;2076209;28;20060;-72
2023/06/01 02:49:05;;;;;;;7.53;2.75;;;;;;;13.85;73.29;100636.56;2076215;28;20927;-72
2023/06/01 02:50:08;;;;;;;10.00;2.60;;;;;;;13.88;73.42;100641.38;2066933;28;20123;-72
2023/06/01 02:51:14;;;;;;;4.53;2.10;;;;;;;13.92;73.38;100641.59;2067331;28;20051;-72
2023/06/01 02:52:19;;;;;;;6.93;2.75;;;;;;;13.94;73.59;100639.41;2060114;28;20027;-72
2023/06/01 02:53:20;;;;;;;8.10;2.55;;;;;;;13.97;73.26;100638.00;2058873;28;20047;-72
2023/06/01 02:54:22;;;;;;;10.45;2.80;;;;;;;13.99;73.37;100636.59;2075494;28;20128;-72
2023/06/01 02:55:23;;;;;;;6.88;2.58;;;;;;;14.01;73.15;100644.41;2074855;28;20150;-72
2023/06/01 02:56:44;;;;;;;7.63;2.88;;;;;;;13.95;73.29;100634.78;2069183;28;20031;-72
2023/06/01 02:58:16;;;;;;;8.15;2.78;;;;;;;13.97;73.24;100630.69;2081269;28;20049;-71
2023/06/01 02:59:31;;;;;;;9.05;2.65;;;;;;;13.95;73.27;100641.00;2082851;28;20106;-72
2023/06/01 03:00:37;;;;;;;8.98;2.50;;;;;;;13.96;73.22;100625.56;2075128;28;20038;-72
2023/06/01 03:01:40;;;;;;;6.80;2.53;;;;;;;13.91;73.37;100629.19;2081490;28;20029;-72
2023/06/01 03:02:45;;;;;;;9.35;2.90;;;;;;;13.93;73.23;100635.06;2079987;28;20038;-72
2023/06/01 03:03:48;;;;;;;8.65;2.65;;;;;;;13.93;73.27;100624.25;2075227;28;20046;-72
2023/06/01 03:04:52;;;;;;;10.43;2.85;;;;;;;13.95;73.47;100629.38;2066723;28;20167;-72
2023/06/01 03:05:53;;;;;;;8.13;2.80;;;;;;;14.00;73.56;100627.38;2048845;28;20129;-72
2023/06/01 03:07:14;;;;;;;7.03;2.22;;;;;;;14.00;73.42;100623.91;2074072;28;20058;-72
2023/06/01 03:08:24;;;;;;;11.60;2.72;;;;;;;14.00;73.36;100627.38;2074176;28;20054;-72
2023/06/01 03:09:26;;;;;;;7.30;2.22;;;;;;;13.98;73.58;100629.59;2067062;28;20169;-72
2023/06/01 03:10:37;;;;;;;8.02;2.20;;;;;;;14.01;73.23;100637.09;2069422;28;20046;-72
2023/06/01 03:11:53;;;;;;;10.05;2.65;;;;;;;14.04;73.30;100631.09;2077171;28;20060;-72
2023/06/01 03:12:58;;;;;;;9.32;2.70;;;;;;;14.08;73.30;100632.09;2076502;28;20875;-72
2023/06/01 03:14:00;;;;;;;10.43;2.63;;;;;;;14.12;72.92;100629.56;2083160;28;20081;-72
2023/06/01 03:15:04;;;;;;;8.32;2.95;;;;;;;14.10;72.84;100637.19;2075064;28;20077;-72
2023/06/01 03:16:07;;;;;;;7.78;2.50;;;;;;;14.12;72.93;100630.41;2079056;28;20029;-72
2023/06/01 03:17:10;;;;;;;5.82;2.38;;;;;;;14.16;73.00;100630.59;2066642;28;20031;-72
2023/06/01 03:18:15;;;;;;;10.73;2.80;;;;;;;14.22;72.79;100628.56;2054098;28;20035;-72
2023/06/01 03:19:17;;;;;;;8.90;2.60;;;;;;;14.25;72.89;100627.97;2043531;28;20036;-72
2023/06/01 03:20:23;;;;;;;6.72;2.53;;;;;;;14.30;72.70;100619.78;2059553;28;20050;-73
2023/06/01 03:21:27;;;;;;;8.65;2.72;;;;;;;14.36;72.48;100629.38;2067230;28;20040;-72
2023/06/01 03:22:29;;;;;;;9.52;2.97;;;;;;;14.36;72.25;100629.38;2050522;28;20910;-72
2023/06/01 03:23:31;;;;;;;8.13;3.17;;;;;;;14.38;72.30;100627.19;2073003;28;20041;-72
2023/06/01 03:24:36;;;;;;;8.10;3.03;;;;;;;14.41;72.22;100615.75;2090708;28;20036;-73
2023/06/01 03:25:38;;;;;;;8.68;2.90;;;;;;;14.48;71.91;100631.59;2073745;28;20034;-72
2023/06/01 03:26:40;;;;;;;6.65;2.63;;;;;;;14.54;72.00;100619.56;2074879;28;20038;-72
2023/06/01 03:27:43;;;;;;;7.90;2.70;;;;;;;14.55;71.74;100621.97;2088639;28;20151;-72
2023/06/01 03:28:44;;;;;;;10.45;2.53;;;;;;;14.57;71.65;100603.53;2073955;28;20031;-72
2023/06/01 03:29:49;;;;;;;9.00;2.65;;;;;;;14.61;71.64;100611.84;2082733;28;20872;-73
2023/06/01 03:30:51;;;;;;;9.55;2.65;;;;;;;14.62;71.53;100610.72;2064925;28;20050;-73
2023/06/01 03:31:55;;;;;;;8.13;2.40;;;;;;;14.69;71.19;100604.91;2054842;28;20046;-72
2023/06/01 03:32:59;;;;;;;9.10;2.70;;;;;;;14.68;71.24;100608.72;2073975;28;20034;-71
2023/06/01 03:34:02;;;;;;;6.35;3.05;;;;;;;14.67;71.35;100612.53;2074305;28;20822;-72
2023/06/01 03:35:07;;;;;;;10.23;2.72;;;;;;;14.66;71.28;100605.50;2058545;28;20057;-72
2023/06/01 03:36:10;;;;;;;11.43;3.08;;;;;;;14.71;71.34;100608.09;2060340;28;20032;-72
2023/06/01 03:37:12;;;;;;;17.83;3.17;;;;;;;14.71;71.51;100603.50;2073959;28;20042;-72
2023/06/01 03:38:13;;;;;;;8.25;2.33;;;;;;;14.76;71.21;100605.31;2073131;28;20986;-73
2023/06/01 03:39:16;;;;;;;8.95;2.63;;;;;;;14.73;71.45;100605.91;2074310;28;20034;-72
2023/06/01 03:40:18;;;;;;;12.07;2.53;;;;;;;14.73;71.36;100600.50;2066432;28;20042;-72
2023/06/01 03:41:21;;;;;;;14.77;2.72;;;;;;;14.78;71.23;100603.88;2066519;28;20045;-72
2023/06/01 03:42:24;;;;;;;7.50;2.45;;;;;;;14.83;71.11;100605.66;2066588;28;20038;-72
2023/06/01 03:43:27;;;;;;;11.38;2.72;;;;;;;14.96;70.97;100604.81;2079297;28;20046;-73
2023/06/01 03:44:31;;;;;;;8.40;2.50;;;;;;;15.04;70.60;100601.38;2074225;28;20045;-73
2023/06/01 03:45:32;;;;;;;9.40;2.67;;;;;;;15.12;70.55;100612.59;2081098;28;20817;-73
2023/06/01 03:46:36;;;;;;;10.45;3.00;;;;;;;15.21;70.58;100614.25;2082237;28;20034;-72
2023/06/01 03:47:38;;;;;;;9.75;3.30;;;;;;;15.34;70.16;100609.88;2074181;28;20116;-72
2023/06/01 03:48:40;;;;;;;19.63;3.85;;;;;;;15.40;69.70;100614.06;2080138;28;20042;-72
2023/06/01 03:49:43;;;;;;;9.60;2.90;;;;;;;15.44;69.71;100617.72;2081650;28;20065;-72
2023/06/01 03:50:46;;;;;;;9.77;2.47;;;;;;;15.47;69.33;100609.00;2074682;28;20046;-72
2023/06/01 03:51:48;;;;;;;9.23;2.50;;;;;;;15.51;69.37;100609.19;2057898;28;20043;-72
2023/06/01 03:52:51;;;;;;;9.70;2.78;;;;;;;15.65;69.26;100609.09;2056373;28;20038;-73
2023/06/01 03:53:52;;;;;;;10.85;2.33;;;;;;;15.71;68.51;100607.88;2074325;28;20028;-73
2023/06/01 03:54:56;;;;;;;12.27;2.60;;;;;;;15.68;68.10;100608.50;2090452;28;20037;-74
2023/06/01 03:56:23;;;;;;;;;;;;;;;15.88;68.26;100607.16;2080770;28;20104;-73
2023/06/01 03:57:28;;;;;;;9.80;2.40;;;;;;;16.04;67.73;100604.81;2066037;28;19914;-73
2023/06/01 03:58:30;;;;;;;12.60;2.45;;;;;;;16.16;67.30;100605.03;2067021;28;20043;-74
2023/06/01 03:59:32;;;;;;;12.10;2.47;;;;;;;16.19;66.82;100616.03;2088131;28;20868;-73
2023/06/01 04:00:34;;;;;;;13.77;2.75;;;;;;;16.26;66.59;100612.88;2073991;28;20237;-73
2023/06/01 04:01:42;;;;;;;9.13;3.00;;;;;;;16.39;66.62;100595.69;2047551;28;20858;-73
2023/06/01 04:02:55;;;;;;;10.32;2.75;;;;;;;16.54;66.07;100601.75;2057219;28;20031;-73
2023/06/01 04:04:00;;;;;;;6.82;3.22;;;;;;;16.72;65.80;100597.94;2084212;28;20048;-73
2023/06/01 04:05:01;;;;;;;7.93;2.30;;;;;;;16.89;65.25;100592.53;2096526;28;20040;-73
2023/06/01 04:06:11;;;;;;;6.95;2.22;;;;;;;16.97;64.41;100592.88;2073441;28;20832;-72
2023/06/01 04:07:21;;;;;;;7.80;2.60;;;;;;;17.04;63.92;100593.19;2044911;28;20693;-73
2023/06/01 04:08:22;;;;;;;;;;;;;;;17.08;63.63;100594.13;2055760;28;20067;-72
2023/06/01 04:09:25;;;;;;;10.57;2.78;;;;;;;17.14;63.38;100592.84;2082584;28;19917;-74
2023/06/01 04:10:26;;;;;;;7.22;2.58;;;;;;;17.24;63.42;100592.50;2098705;28;20036;-75
2023/06/01 04:11:28;;;;;;;10.68;2.42;;;;;;;17.30;63.31;100596.66;2090289;28;20776;-75
2023/06/01 04:12:32;;;;;;;10.75;2.65;;;;;;;17.37;62.97;100596.97;2074160;28;20042;-77
2023/06/01 04:13:34;;;;;;;7.97;2.30;;;;;;;17.41;62.58;100588.97;2066477;28;20755;-83
2023/06/01 04:14:38;;;;;;;10.18;2.40;;;;;;;17.45;62.41;100589.13;2066728;28;20042;-82
2023/06/01 04:15:42;;;;;;;8.85;2.80;;;;;;;17.55;62.31;100588.75;2066257;28;20997;-81
2023/06/01 04:16:48;;;;;;;13.88;3.05;;;;;;;17.67;62.02;100588.88;2066475;28;20042;-83
2023/06/01 04:17:57;;;;;;;9.75;2.55;;;;;;;17.82;61.89;100591.09;2059171;28;20027;-83
2023/06/01 04:19:05;;;;;;;13.45;2.70;;;;;;;18.03;61.36;100584.91;2065894;28;20158;-82
2023/06/01 04:20:12;;;;;;;10.07;2.47;;;;;;;18.15;60.69;100585.00;2074082;28;20034;-85
2023/06/01 04:21:13;;;;;;;7.80;2.33;;;;;;;18.26;60.38;100588.97;2066542;28;20129;-85
2023/06/01 04:22:18;;;;;;;10.60;2.53;;;;;;;18.30;59.74;100578.22;2074706;28;20038;-85
2023/06/01 04:23:21;;;;;;;15.52;2.67;;;;;;;18.40;59.67;100579.75;2074548;28;20046;-83
2023/06/01 04:24:23;;;;;;;11.35;2.83;;;;;;;18.52;59.34;100580.63;2058007;28;20953;-84
2023/06/01 04:25:25;;;;;;;12.85;3.45;;;;;;;18.58;58.78;100578.50;2065431;28;20039;-82
2023/06/01 04:26:35;;;;;;;8.35;2.50;;;;;;;18.61;58.50;100579.78;2067547;28;20039;-83
2023/06/01 04:27:47;;;;;;;12.40;2.60;;;;;;;18.64;58.25;100581.84;2076139;28;20073;-83
2023/06/01 04:28:49;;;;;;;10.55;2.67;;;;;;;18.71;58.14;100577.44;2084112;28;21266;-83
2023/06/01 04:29:53;;;;;;;6.78;2.60;;;;;;;18.59;58.24;100580.09;2066424;28;20038;-83
2023/06/01 04:30:55;;;;;;;8.27;2.47;;;;;;;18.69;58.06;100582.41;2050988;28;20044;-86
2023/06/01 04:31:57;;;;;;;8.93;3.05;;;;;;;18.83;57.67;100581.38;2047122;28;20065;-73
2023/06/01 04:33:00;;;;;;;8.90;2.60;;;;;;;18.93;57.78;100584.50;2050248;28;20071;-73
2023/06/01 04:34:03;;;;;;;8.07;2.30;;;;;;;19.06;57.18;100577.16;2043219;28;20048;-70
2023/06/01 04:35:07;;;;;;;5.53;2.35;;;;;;;19.22;56.97;100575.41;2066860;28;20046;-70
2023/06/01 04:36:11;;;;;;;15.02;3.20;;;;;;;19.33;56.36;100580.44;2065265;28;20153;-66
2023/06/01 04:37:15;;;;;;;12.07;2.17;;;;;;;19.39;56.46;100584.56;2059275;28;20035;-70
2023/06/01 04:38:16;;;;;;;11.90;2.70;;;;;;;19.39;56.25;100577.16;2073444;28;20031;-70
2023/06/01 04:39:19;;;;;;;4.38;2.25;;;;;;;19.45;56.13;100577.72;2068266;28;20110;-69
2023/06/01 04:40:21;;;;;;;10.07;2.65;;;;;;;19.52;55.31;100569.81;2066491;28;20146;-67
2023/06/01 04:41:23;;;;;;;9.93;2.50;;;;;;;19.51;55.17;100570.13;2066307;28;20053;-68
2023/06/01 04:42:25;;;;;;;7.00;2.08;;;;;;;19.58;55.94;100571.19;2082098;28;20037;-68
2023/06/01 04:43:27;;;;;;;11.82;2.65;;;;;;;19.74;55.72;100574.06;2082091;28;20065;-65
2023/06/01 04:44:29;;;;;;;10.45;2.70;;;;;;;19.91;55.12;100573.03;2081715;28;20152;-66
2023/06/01 04:45:33;;;;;;;9.80;2.65;;;;;;;20.03;54.76;100569.53;2082174;28;20148;-65
2023/06/01 04:46:39;;;;;;;6.60;2.33;;;;;;;20.09;54.25;100568.16;2082655;28;20038;-65
2023/06/01 04:47:40;;;;;;;8.02;2.63;;;;;;;20.07;53.82;100587.59;2091032;28;20029;-66
2023/06/01 04:48:51;;;;;;;6.75;2.75;;;;;;;20.12;53.81;100579.19;2073077;28;20751;-67
2023/06/01 04:49:53;;;;;;;10.25;2.40;;;;;;;20.25;53.72;100577.22;2073725;28;20070;-70
2023/06/01 04:50:58;;;;;;;10.40;2.88;;;;;;;20.35;53.46;100575.97;2073619;28;20153;-70
2023/06/01 04:52:00;;;;;;;8.02;2.60;;;;;;;20.48;53.31;100569.34;2066028;28;20035;-71
2023/06/01 04:53:02;;;;;;;8.93;2.70;;;;;;;20.51;52.71;100563.22;2065312;28;20034;-68
2023/06/01 04:54:07;;;;;;;11.95;2.95;;;;;;;20.64;52.51;100565.91;2073406;28;20901;-69
2023/06/01 04:55:11;;;;;;;12.48;3.40;;;;;;;20.73;52.07;100569.31;2081577;28;20036;-66
2023/06/01 04:56:13;;;;;;;11.68;3.05;;;;;;;20.75;51.78;100561.56;2065250;28;20043;-66
2023/06/01 04:57:14;;;;;;;8.68;2.35;;;;;;;20.74;51.74;100565.41;2049451;28;20050;-66
2023/06/01 04:58:16;;;;;;;9.85;2.55;;;;;;;20.79;51.60;100568.72;2055697;28;20031;-66
2023/06/01 04:59:21;;;;;;;11.15;2.95;;;;;;;20.79;51.56;100573.38;2062641;28;20870;-67
2023/06/01 05:00:23;;;;;;;9.48;2.28;;;;;;;20.80;51.70;100562.09;2076766;28;20045;-66
2023/06/01 05:01:29;;;;;;;10.95;2.67;;;;;;;20.93;51.70;100578.44;2087847;28;20030;-66